sensor_id;sensor_type;location;lat;lon;timestamp;P1;durP1;ratioP1;P2;durP2;ratioP2
25449;SDS011;13371;52.080;5.624;2023-05-10T00:01:10;23.55;;;13.02;;
25449;SDS011;13371;52.080;5.624;2023-05-10T00:03:36;21.48;;;12.65;;
25449;SDS011;13371;52.080;5.624;2023-05-10T00:06:01;23.58;;;13.40;;
25449;SDS011;13371;52.080;5.624;2023-05-10T00:08:27;23.60;;;13.55;;
25449;SDS011;13371;52.080;5.624;2023-05-10T00:10:53;22.73;;;13.05;;
25449;SDS011;13371;52.080;5.624;2023-05-10T00:13:18;23.58;;;13.80;;
25449;SDS011;13371;52.080;5.624;2023-05-10T00:15:44;27.67;;;14.63;;
25449;SDS011;13371;52.080;5.624;2023-05-10T00:18:10;27.33;;;14.27;;
25449;SDS011;13371;52.080;5.624;2023-05-10T00:20:36;28.48;;;14.32;;
25449;SDS011;13371;52.080;5.624;2023-05-10T00:23:01;27.48;;;15.70;;
25449;SDS011;13371;52.080;5.624;2023-05-10T00:25:27;31.80;;;15.52;;
25449;SDS011;13371;52.080;5.624;2023-05-10T00:27:52;28.88;;;15.73;;
25449;SDS011;13371;52.080;5.624;2023-05-10T00:30:20;29.02;;;16.02;;
25449;SDS011;13371;52.080;5.624;2023-05-10T00:32:45;28.27;;;14.45;;
25449;SDS011;13371;52.080;5.624;2023-05-10T00:35:13;29.35;;;15.38;;
25449;SDS011;13371;52.080;5.624;2023-05-10T00:37:38;28.17;;;14.05;;
25449;SDS011;13371;52.080;5.624;2023-05-10T00:40:04;30.15;;;16.23;;
25449;SDS011;13371;52.080;5.624;2023-05-10T00:42:31;30.98;;;15.70;;
25449;SDS011;13371;52.080;5.624;2023-05-10T00:44:56;28.98;;;14.05;;
25449;SDS011;13371;52.080;5.624;2023-05-10T00:47:22;29.83;;;15.30;;
25449;SDS011;13371;52.080;5.624;2023-05-10T00:49:48;26.38;;;13.10;;
25449;SDS011;13371;52.080;5.624;2023-05-10T00:52:14;29.25;;;15.70;;
25449;SDS011;13371;52.080;5.624;2023-05-10T00:54:40;39.40;;;17.35;;
25449;SDS011;13371;52.080;5.624;2023-05-10T00:57:06;27.75;;;14.95;;
25449;SDS011;13371;52.080;5.624;2023-05-10T00:59:31;30.70;;;15.18;;
25449;SDS011;13371;52.080;5.624;2023-05-10T01:01:57;33.38;;;15.82;;
25449;SDS011;13371;52.080;5.624;2023-05-10T01:04:23;32.60;;;15.40;;
25449;SDS011;13371;52.080;5.624;2023-05-10T01:06:50;38.50;;;17.48;;
25449;SDS011;13371;52.080;5.624;2023-05-10T01:09:18;35.47;;;17.83;;
25449;SDS011;13371;52.080;5.624;2023-05-10T01:11:44;32.40;;;14.82;;
25449;SDS011;13371;52.080;5.624;2023-05-10T01:14:10;34.42;;;17.15;;
25449;SDS011;13371;52.080;5.624;2023-05-10T01:16:37;36.72;;;18.00;;
25449;SDS011;13371;52.080;5.624;2023-05-10T01:19:05;42.03;;;18.55;;
25449;SDS011;13371;52.080;5.624;2023-05-10T01:30:09;42.13;;;18.92;;
25449;SDS011;13371;52.080;5.624;2023-05-10T01:44:02;39.85;;;17.83;;
25449;SDS011;13371;52.080;5.624;2023-05-10T01:46:41;45.28;;;19.55;;
25449;SDS011;13371;52.080;5.624;2023-05-10T01:49:09;51.92;;;21.20;;
25449;SDS011;13371;52.080;5.624;2023-05-10T01:51:47;44.30;;;20.38;;
25449;SDS011;13371;52.080;5.624;2023-05-10T01:54:17;46.05;;;20.15;;
25449;SDS011;13371;52.080;5.624;2023-05-10T01:56:45;41.20;;;18.45;;
25449;SDS011;13371;52.080;5.624;2023-05-10T01:59:16;43.90;;;19.83;;
25449;SDS011;13371;52.080;5.624;2023-05-10T02:01:44;51.35;;;21.73;;
25449;SDS011;13371;52.080;5.624;2023-05-10T02:04:12;43.75;;;20.48;;
25449;SDS011;13371;52.080;5.624;2023-05-10T02:06:40;45.92;;;19.80;;
25449;SDS011;13371;52.080;5.624;2023-05-10T02:09:08;44.50;;;20.38;;
25449;SDS011;13371;52.080;5.624;2023-05-10T02:11:36;45.58;;;19.75;;
25449;SDS011;13371;52.080;5.624;2023-05-10T02:14:07;50.28;;;20.90;;
25449;SDS011;13371;52.080;5.624;2023-05-10T02:16:35;51.78;;;19.90;;
25449;SDS011;13371;52.080;5.624;2023-05-10T02:19:02;46.00;;;18.88;;
25449;SDS011;13371;52.080;5.624;2023-05-10T02:21:29;47.85;;;20.02;;
25449;SDS011;13371;52.080;5.624;2023-05-10T02:23:56;42.45;;;18.58;;
25449;SDS011;13371;52.080;5.624;2023-05-10T02:26:23;41.47;;;17.95;;
25449;SDS011;13371;52.080;5.624;2023-05-10T02:28:50;43.15;;;19.35;;
25449;SDS011;13371;52.080;5.624;2023-05-10T02:31:17;49.33;;;19.75;;
25449;SDS011;13371;52.080;5.624;2023-05-10T02:33:44;45.80;;;19.63;;
25449;SDS011;13371;52.080;5.624;2023-05-10T02:36:11;47.25;;;19.52;;
25449;SDS011;13371;52.080;5.624;2023-05-10T02:38:38;53.35;;;21.85;;
25449;SDS011;13371;52.080;5.624;2023-05-10T02:41:04;52.17;;;21.17;;
25449;SDS011;13371;52.080;5.624;2023-05-10T02:43:33;40.92;;;17.67;;
25449;SDS011;13371;52.080;5.624;2023-05-10T02:45:58;47.05;;;20.48;;
25449;SDS011;13371;52.080;5.624;2023-05-10T02:48:24;47.03;;;19.10;;
25449;SDS011;13371;52.080;5.624;2023-05-10T02:50:50;48.92;;;19.98;;
25449;SDS011;13371;52.080;5.624;2023-05-10T02:53:21;46.45;;;20.70;;
25449;SDS011;13371;52.080;5.624;2023-05-10T02:55:49;52.30;;;21.13;;
25449;SDS011;13371;52.080;5.624;2023-05-10T02:58:16;54.05;;;21.02;;
25449;SDS011;13371;52.080;5.624;2023-05-10T03:00:44;49.08;;;20.75;;
25449;SDS011;13371;52.080;5.624;2023-05-10T03:03:11;48.97;;;21.25;;
25449;SDS011;13371;52.080;5.624;2023-05-10T03:05:36;51.25;;;19.77;;
25449;SDS011;13371;52.080;5.624;2023-05-10T03:08:02;54.35;;;20.85;;
25449;SDS011;13371;52.080;5.624;2023-05-10T03:10:29;49.22;;;20.35;;
25449;SDS011;13371;52.080;5.624;2023-05-10T03:15:37;50.80;;;21.55;;
25449;SDS011;13371;52.080;5.624;2023-05-10T03:18:28;55.63;;;21.90;;
25449;SDS011;13371;52.080;5.624;2023-05-10T03:21:02;54.50;;;22.13;;
25449;SDS011;13371;52.080;5.624;2023-05-10T03:23:35;56.83;;;21.60;;
25449;SDS011;13371;52.080;5.624;2023-05-10T03:26:17;46.17;;;19.80;;
25449;SDS011;13371;52.080;5.624;2023-05-10T03:28:45;51.92;;;21.05;;
25449;SDS011;13371;52.080;5.624;2023-05-10T03:31:13;47.80;;;19.00;;
25449;SDS011;13371;52.080;5.624;2023-05-10T03:33:46;51.67;;;20.58;;
25449;SDS011;13371;52.080;5.624;2023-05-10T03:36:12;54.42;;;21.92;;
25449;SDS011;13371;52.080;5.624;2023-05-10T03:38:38;60.22;;;22.67;;
25449;SDS011;13371;52.080;5.624;2023-05-10T03:41:04;61.45;;;23.48;;
25449;SDS011;13371;52.080;5.624;2023-05-10T03:43:29;68.63;;;25.30;;
25449;SDS011;13371;52.080;5.624;2023-05-10T03:45:55;66.40;;;24.92;;
25449;SDS011;13371;52.080;5.624;2023-05-10T03:48:21;67.50;;;25.35;;
25449;SDS011;13371;52.080;5.624;2023-05-10T03:50:46;68.22;;;26.10;;
25449;SDS011;13371;52.080;5.624;2023-05-10T03:53:12;67.25;;;24.23;;
25449;SDS011;13371;52.080;5.624;2023-05-10T03:55:37;74.70;;;26.20;;
25449;SDS011;13371;52.080;5.624;2023-05-10T03:58:03;69.20;;;25.20;;
25449;SDS011;13371;52.080;5.624;2023-05-10T04:00:28;68.82;;;25.25;;
25449;SDS011;13371;52.080;5.624;2023-05-10T04:02:55;61.70;;;23.33;;
25449;SDS011;13371;52.080;5.624;2023-05-10T04:05:20;77.32;;;28.63;;
25449;SDS011;13371;52.080;5.624;2023-05-10T04:07:46;79.60;;;25.80;;
25449;SDS011;13371;52.080;5.624;2023-05-10T04:10:14;72.18;;;24.55;;
25449;SDS011;13371;52.080;5.624;2023-05-10T04:12:41;59.95;;;21.50;;
25449;SDS011;13371;52.080;5.624;2023-05-10T04:15:06;65.68;;;22.98;;
25449;SDS011;13371;52.080;5.624;2023-05-10T04:17:33;69.35;;;23.35;;
25449;SDS011;13371;52.080;5.624;2023-05-10T04:19:58;75.25;;;24.48;;
25449;SDS011;13371;52.080;5.624;2023-05-10T04:22:24;54.30;;;19.38;;
25449;SDS011;13371;52.080;5.624;2023-05-10T04:24:49;72.68;;;23.05;;
25449;SDS011;13371;52.080;5.624;2023-05-10T04:27:15;70.78;;;22.92;;
25449;SDS011;13371;52.080;5.624;2023-05-10T04:29:41;62.00;;;22.00;;
25449;SDS011;13371;52.080;5.624;2023-05-10T04:32:06;63.17;;;23.40;;
25449;SDS011;13371;52.080;5.624;2023-05-10T04:34:32;76.43;;;24.30;;
25449;SDS011;13371;52.080;5.624;2023-05-10T04:36:59;63.55;;;21.98;;
25449;SDS011;13371;52.080;5.624;2023-05-10T04:39:24;61.45;;;23.15;;
25449;SDS011;13371;52.080;5.624;2023-05-10T04:41:50;67.45;;;23.02;;
25449;SDS011;13371;52.080;5.624;2023-05-10T04:44:15;57.92;;;21.80;;
25449;SDS011;13371;52.080;5.624;2023-05-10T04:46:41;62.42;;;21.65;;
25449;SDS011;13371;52.080;5.624;2023-05-10T04:49:06;64.07;;;22.27;;
25449;SDS011;13371;52.080;5.624;2023-05-10T04:51:32;51.15;;;20.98;;
25449;SDS011;13371;52.080;5.624;2023-05-10T04:53:58;56.60;;;21.20;;
25449;SDS011;13371;52.080;5.624;2023-05-10T04:56:23;54.45;;;21.75;;
25449;SDS011;13371;52.080;5.624;2023-05-10T04:58:49;53.60;;;19.63;;
25449;SDS011;13371;52.080;5.624;2023-05-10T05:01:14;61.60;;;21.58;;
25449;SDS011;13371;52.080;5.624;2023-05-10T05:03:40;54.05;;;19.40;;
25449;SDS011;13371;52.080;5.624;2023-05-10T05:06:09;57.92;;;20.25;;
25449;SDS011;13371;52.080;5.624;2023-05-10T05:08:34;59.17;;;20.67;;
25449;SDS011;13371;52.080;5.624;2023-05-10T05:11:00;56.75;;;20.50;;
25449;SDS011;13371;52.080;5.624;2023-05-10T05:13:25;62.95;;;21.33;;
25449;SDS011;13371;52.080;5.624;2023-05-10T05:15:54;53.42;;;18.83;;
25449;SDS011;13371;52.080;5.624;2023-05-10T05:18:20;54.60;;;19.88;;
25449;SDS011;13371;52.080;5.624;2023-05-10T05:20:45;56.92;;;19.27;;
25449;SDS011;13371;52.080;5.624;2023-05-10T05:23:11;57.80;;;20.13;;
25449;SDS011;13371;52.080;5.624;2023-05-10T05:25:36;58.30;;;20.27;;
25449;SDS011;13371;52.080;5.624;2023-05-10T05:28:02;54.05;;;20.08;;
25449;SDS011;13371;52.080;5.624;2023-05-10T05:30:28;68.82;;;21.98;;
25449;SDS011;13371;52.080;5.624;2023-05-10T05:32:53;54.10;;;19.95;;
25449;SDS011;13371;52.080;5.624;2023-05-10T05:35:21;59.50;;;21.10;;
25449;SDS011;13371;52.080;5.624;2023-05-10T05:37:47;62.85;;;20.73;;
25449;SDS011;13371;52.080;5.624;2023-05-10T05:40:12;60.35;;;22.02;;
25449;SDS011;13371;52.080;5.624;2023-05-10T05:42:42;70.57;;;23.80;;
25449;SDS011;13371;52.080;5.624;2023-05-10T05:45:07;63.63;;;21.48;;
25449;SDS011;13371;52.080;5.624;2023-05-10T05:47:37;62.60;;;22.35;;
25449;SDS011;13371;52.080;5.624;2023-05-10T05:50:03;79.03;;;22.45;;
25449;SDS011;13371;52.080;5.624;2023-05-10T05:52:29;70.53;;;22.52;;
25449;SDS011;13371;52.080;5.624;2023-05-10T05:54:55;76.78;;;23.58;;
25449;SDS011;13371;52.080;5.624;2023-05-10T05:57:21;64.55;;;20.92;;
25449;SDS011;13371;52.080;5.624;2023-05-10T05:59:46;79.32;;;23.48;;
25449;SDS011;13371;52.080;5.624;2023-05-10T06:02:12;70.93;;;22.30;;
25449;SDS011;13371;52.080;5.624;2023-05-10T06:04:37;63.78;;;22.60;;
25449;SDS011;13371;52.080;5.624;2023-05-10T06:07:03;75.82;;;23.20;;
25449;SDS011;13371;52.080;5.624;2023-05-10T06:09:31;68.10;;;22.52;;
25449;SDS011;13371;52.080;5.624;2023-05-10T06:11:56;71.13;;;22.80;;
25449;SDS011;13371;52.080;5.624;2023-05-10T06:14:22;77.28;;;25.15;;
25449;SDS011;13371;52.080;5.624;2023-05-10T06:16:48;73.13;;;23.70;;
25449;SDS011;13371;52.080;5.624;2023-05-10T06:19:13;59.28;;;20.58;;
25449;SDS011;13371;52.080;5.624;2023-05-10T06:21:39;74.13;;;24.33;;
25449;SDS011;13371;52.080;5.624;2023-05-10T06:24:05;67.78;;;22.75;;
25449;SDS011;13371;52.080;5.624;2023-05-10T06:26:31;69.65;;;23.63;;
25449;SDS011;13371;52.080;5.624;2023-05-10T06:28:57;69.90;;;24.13;;
25449;SDS011;13371;52.080;5.624;2023-05-10T06:31:23;69.13;;;23.52;;
25449;SDS011;13371;52.080;5.624;2023-05-10T06:33:48;69.40;;;23.40;;
25449;SDS011;13371;52.080;5.624;2023-05-10T06:36:14;69.57;;;22.65;;
25449;SDS011;13371;52.080;5.624;2023-05-10T06:38:40;67.78;;;23.50;;
25449;SDS011;13371;52.080;5.624;2023-05-10T06:41:05;70.65;;;23.90;;
25449;SDS011;13371;52.080;5.624;2023-05-10T06:43:31;64.30;;;21.75;;
25449;SDS011;13371;52.080;5.624;2023-05-10T06:45:57;82.00;;;25.15;;
25449;SDS011;13371;52.080;5.624;2023-05-10T06:48:22;70.40;;;24.52;;
25449;SDS011;13371;52.080;5.624;2023-05-10T06:50:48;67.22;;;22.33;;
25449;SDS011;13371;52.080;5.624;2023-05-10T06:53:14;70.57;;;23.05;;
25449;SDS011;13371;52.080;5.624;2023-05-10T06:55:40;79.60;;;25.45;;
25449;SDS011;13371;52.080;5.624;2023-05-10T06:58:06;65.53;;;22.80;;
25449;SDS011;13371;52.080;5.624;2023-05-10T07:00:31;65.63;;;22.63;;
25449;SDS011;13371;52.080;5.624;2023-05-10T07:02:57;67.30;;;24.63;;
25449;SDS011;13371;52.080;5.624;2023-05-10T07:05:23;64.15;;;23.25;;
25449;SDS011;13371;52.080;5.624;2023-05-10T07:07:48;68.47;;;24.05;;
25449;SDS011;13371;52.080;5.624;2023-05-10T07:10:14;67.85;;;23.83;;
25449;SDS011;13371;52.080;5.624;2023-05-10T07:12:40;57.53;;;23.25;;
25449;SDS011;13371;52.080;5.624;2023-05-10T07:15:06;54.75;;;19.38;;
25449;SDS011;13371;52.080;5.624;2023-05-10T07:17:32;51.38;;;20.90;;
25449;SDS011;13371;52.080;5.624;2023-05-10T07:19:58;59.50;;;22.75;;
25449;SDS011;13371;52.080;5.624;2023-05-10T07:22:24;49.40;;;19.35;;
25449;SDS011;13371;52.080;5.624;2023-05-10T07:24:50;50.22;;;18.70;;
25449;SDS011;13371;52.080;5.624;2023-05-10T07:27:16;65.82;;;22.92;;
25449;SDS011;13371;52.080;5.624;2023-05-10T07:29:41;46.45;;;19.02;;
25449;SDS011;13371;52.080;5.624;2023-05-10T07:32:07;47.33;;;17.92;;
25449;SDS011;13371;52.080;5.624;2023-05-10T07:34:32;53.22;;;19.50;;
25449;SDS011;13371;52.080;5.624;2023-05-10T07:36:58;44.08;;;17.92;;
25449;SDS011;13371;52.080;5.624;2023-05-10T07:39:24;50.47;;;18.60;;
25449;SDS011;13371;52.080;5.624;2023-05-10T07:41:50;52.70;;;19.05;;
25449;SDS011;13371;52.080;5.624;2023-05-10T07:44:16;48.50;;;18.45;;
25449;SDS011;13371;52.080;5.624;2023-05-10T07:46:44;49.50;;;19.33;;
25449;SDS011;13371;52.080;5.624;2023-05-10T07:49:09;46.65;;;18.30;;
25449;SDS011;13371;52.080;5.624;2023-05-10T07:51:35;41.45;;;16.98;;
25449;SDS011;13371;52.080;5.624;2023-05-10T07:54:00;41.22;;;15.63;;
25449;SDS011;13371;52.080;5.624;2023-05-10T07:56:28;33.13;;;15.05;;
25449;SDS011;13371;52.080;5.624;2023-05-10T07:58:55;29.13;;;13.30;;
25449;SDS011;13371;52.080;5.624;2023-05-10T08:01:21;30.30;;;13.38;;
25449;SDS011;13371;52.080;5.624;2023-05-10T08:03:47;29.85;;;11.98;;
25449;SDS011;13371;52.080;5.624;2023-05-10T08:06:14;26.15;;;10.55;;
25449;SDS011;13371;52.080;5.624;2023-05-10T08:08:40;23.20;;;9.52;;
25449;SDS011;13371;52.080;5.624;2023-05-10T08:11:06;25.53;;;10.40;;
25449;SDS011;13371;52.080;5.624;2023-05-10T08:13:32;23.27;;;9.88;;
25449;SDS011;13371;52.080;5.624;2023-05-10T08:15:57;23.70;;;11.20;;
25449;SDS011;13371;52.080;5.624;2023-05-10T08:18:23;23.85;;;10.18;;
25449;SDS011;13371;52.080;5.624;2023-05-10T08:20:48;26.20;;;11.85;;
25449;SDS011;13371;52.080;5.624;2023-05-10T08:23:14;22.02;;;10.55;;
25449;SDS011;13371;52.080;5.624;2023-05-10T08:25:40;19.58;;;10.35;;
25449;SDS011;13371;52.080;5.624;2023-05-10T08:28:06;17.52;;;9.07;;
25449;SDS011;13371;52.080;5.624;2023-05-10T08:30:31;23.30;;;9.50;;
25449;SDS011;13371;52.080;5.624;2023-05-10T08:32:57;21.25;;;9.98;;
25449;SDS011;13371;52.080;5.624;2023-05-10T08:35:23;22.25;;;10.38;;
25449;SDS011;13371;52.080;5.624;2023-05-10T08:37:49;22.42;;;11.25;;
25449;SDS011;13371;52.080;5.624;2023-05-10T08:40:15;22.55;;;10.75;;
25449;SDS011;13371;52.080;5.624;2023-05-10T08:42:43;22.33;;;10.10;;
25449;SDS011;13371;52.080;5.624;2023-05-10T08:45:32;20.38;;;10.13;;
25449;SDS011;13371;52.080;5.624;2023-05-10T08:48:01;16.95;;;9.13;;
25449;SDS011;13371;52.080;5.624;2023-05-10T08:50:27;16.05;;;8.45;;
25449;SDS011;13371;52.080;5.624;2023-05-10T08:52:55;17.98;;;9.02;;
25449;SDS011;13371;52.080;5.624;2023-05-10T08:55:25;17.27;;;8.88;;
25449;SDS011;13371;52.080;5.624;2023-05-10T08:57:51;16.60;;;9.48;;
25449;SDS011;13371;52.080;5.624;2023-05-10T09:00:16;16.83;;;9.13;;
25449;SDS011;13371;52.080;5.624;2023-05-10T09:02:43;16.85;;;8.18;;
25449;SDS011;13371;52.080;5.624;2023-05-10T09:05:10;15.93;;;8.43;;
25449;SDS011;13371;52.080;5.624;2023-05-10T09:07:36;16.98;;;10.02;;
25449;SDS011;13371;52.080;5.624;2023-05-10T09:10:02;17.55;;;8.68;;
25449;SDS011;13371;52.080;5.624;2023-05-10T09:12:29;16.70;;;9.07;;
25449;SDS011;13371;52.080;5.624;2023-05-10T09:14:55;14.15;;;8.80;;
25449;SDS011;13371;52.080;5.624;2023-05-10T09:17:23;18.60;;;9.35;;
25449;SDS011;13371;52.080;5.624;2023-05-10T09:19:50;18.92;;;9.70;;
25449;SDS011;13371;52.080;5.624;2023-05-10T09:22:24;21.60;;;9.55;;
25449;SDS011;13371;52.080;5.624;2023-05-10T09:25:12;20.70;;;9.98;;
25449;SDS011;13371;52.080;5.624;2023-05-10T09:27:37;18.17;;;9.85;;
25449;SDS011;13371;52.080;5.624;2023-05-10T09:30:04;19.45;;;9.80;;
25449;SDS011;13371;52.080;5.624;2023-05-10T09:32:44;22.15;;;11.55;;
25449;SDS011;13371;52.080;5.624;2023-05-10T09:35:12;21.05;;;10.85;;
25449;SDS011;13371;52.080;5.624;2023-05-10T09:37:44;21.17;;;11.02;;
25449;SDS011;13371;52.080;5.624;2023-05-10T09:40:13;20.58;;;10.30;;
25449;SDS011;13371;52.080;5.624;2023-05-10T09:42:41;23.20;;;10.93;;
25449;SDS011;13371;52.080;5.624;2023-05-10T09:45:08;18.30;;;10.18;;
25449;SDS011;13371;52.080;5.624;2023-05-10T09:47:34;22.33;;;9.98;;
25449;SDS011;13371;52.080;5.624;2023-05-10T09:50:01;20.00;;;10.50;;
25449;SDS011;13371;52.080;5.624;2023-05-10T09:52:32;21.35;;;10.70;;
25449;SDS011;13371;52.080;5.624;2023-05-10T09:55:13;22.80;;;10.90;;
25449;SDS011;13371;52.080;5.624;2023-05-10T09:57:40;18.88;;;10.43;;
25449;SDS011;13371;52.080;5.624;2023-05-10T10:00:06;19.25;;;10.50;;
25449;SDS011;13371;52.080;5.624;2023-05-10T10:02:32;17.08;;;9.35;;
25449;SDS011;13371;52.080;5.624;2023-05-10T10:05:00;17.63;;;8.93;;
25449;SDS011;13371;52.080;5.624;2023-05-10T10:07:26;14.88;;;8.55;;
25449;SDS011;13371;52.080;5.624;2023-05-10T10:09:53;16.17;;;7.95;;
25449;SDS011;13371;52.080;5.624;2023-05-10T10:12:19;14.93;;;8.05;;
25449;SDS011;13371;52.080;5.624;2023-05-10T10:14:48;17.80;;;8.27;;
25449;SDS011;13371;52.080;5.624;2023-05-10T10:17:21;16.45;;;8.70;;
25449;SDS011;13371;52.080;5.624;2023-05-10T10:19:54;17.52;;;8.32;;
25449;SDS011;13371;52.080;5.624;2023-05-10T10:22:40;17.23;;;8.80;;
25449;SDS011;13371;52.080;5.624;2023-05-10T10:25:12;16.92;;;8.10;;
25449;SDS011;13371;52.080;5.624;2023-05-10T10:35:38;11.07;;;6.63;;
25449;SDS011;13371;52.080;5.624;2023-05-10T10:38:05;11.20;;;6.30;;
25449;SDS011;13371;52.080;5.624;2023-05-10T10:40:33;10.95;;;6.13;;
25449;SDS011;13371;52.080;5.624;2023-05-10T10:49:08;10.45;;;5.53;;
25449;SDS011;13371;52.080;5.624;2023-05-10T10:51:39;11.40;;;6.30;;
25449;SDS011;13371;52.080;5.624;2023-05-10T10:54:11;14.02;;;7.10;;
25449;SDS011;13371;52.080;5.624;2023-05-10T10:56:37;12.13;;;6.22;;
25449;SDS011;13371;52.080;5.624;2023-05-10T10:59:02;11.88;;;6.38;;
25449;SDS011;13371;52.080;5.624;2023-05-10T11:01:32;13.25;;;6.63;;
25449;SDS011;13371;52.080;5.624;2023-05-10T11:06:31;11.15;;;6.20;;
25449;SDS011;13371;52.080;5.624;2023-05-10T11:08:58;10.40;;;5.65;;
25449;SDS011;13371;52.080;5.624;2023-05-10T11:11:34;12.05;;;6.20;;
25449;SDS011;13371;52.080;5.624;2023-05-10T11:14:04;11.25;;;6.50;;
25449;SDS011;13371;52.080;5.624;2023-05-10T11:16:41;15.05;;;6.45;;
25449;SDS011;13371;52.080;5.624;2023-05-10T11:19:15;11.10;;;6.15;;
25449;SDS011;13371;52.080;5.624;2023-05-10T11:21:51;11.10;;;6.25;;
25449;SDS011;13371;52.080;5.624;2023-05-10T11:24:36;11.80;;;5.93;;
25449;SDS011;13371;52.080;5.624;2023-05-10T11:27:02;11.30;;;6.38;;
25449;SDS011;13371;52.080;5.624;2023-05-10T11:29:28;12.45;;;6.40;;
25449;SDS011;13371;52.080;5.624;2023-05-10T11:31:57;9.73;;;5.82;;
25449;SDS011;13371;52.080;5.624;2023-05-10T11:34:28;12.68;;;6.32;;
25449;SDS011;13371;52.080;5.624;2023-05-10T11:36:55;12.60;;;6.88;;
25449;SDS011;13371;52.080;5.624;2023-05-10T11:39:25;11.35;;;5.65;;
25449;SDS011;13371;52.080;5.624;2023-05-10T11:41:56;10.38;;;5.80;;
25449;SDS011;13371;52.080;5.624;2023-05-10T11:44:23;14.80;;;6.43;;
25449;SDS011;13371;52.080;5.624;2023-05-10T11:46:53;11.13;;;6.22;;
25449;SDS011;13371;52.080;5.624;2023-05-10T11:49:19;10.70;;;5.65;;
25449;SDS011;13371;52.080;5.624;2023-05-10T11:51:47;12.27;;;5.72;;
25449;SDS011;13371;52.080;5.624;2023-05-10T11:54:13;11.23;;;5.90;;
25449;SDS011;13371;52.080;5.624;2023-05-10T11:56:39;12.30;;;5.93;;
25449;SDS011;13371;52.080;5.624;2023-05-10T11:59:05;10.10;;;5.55;;
25449;SDS011;13371;52.080;5.624;2023-05-10T12:01:31;9.73;;;5.40;;
25449;SDS011;13371;52.080;5.624;2023-05-10T12:03:57;11.95;;;6.00;;
25449;SDS011;13371;52.080;5.624;2023-05-10T12:06:28;11.07;;;6.30;;
25449;SDS011;13371;52.080;5.624;2023-05-10T12:08:56;9.82;;;5.78;;
25449;SDS011;13371;52.080;5.624;2023-05-10T12:11:24;10.13;;;5.18;;
25449;SDS011;13371;52.080;5.624;2023-05-10T12:13:51;10.52;;;5.38;;
25449;SDS011;13371;52.080;5.624;2023-05-10T12:16:19;9.20;;;5.45;;
25449;SDS011;13371;52.080;5.624;2023-05-10T12:18:52;10.32;;;5.65;;
25449;SDS011;13371;52.080;5.624;2023-05-10T12:21:18;10.93;;;5.47;;
25449;SDS011;13371;52.080;5.624;2023-05-10T12:23:48;10.57;;;5.15;;
25449;SDS011;13371;52.080;5.624;2023-05-10T12:26:15;8.88;;;5.53;;
25449;SDS011;13371;52.080;5.624;2023-05-10T12:28:41;9.02;;;5.10;;
25449;SDS011;13371;52.080;5.624;2023-05-10T12:31:07;10.95;;;5.90;;
25449;SDS011;13371;52.080;5.624;2023-05-10T12:33:37;8.45;;;4.95;;
25449;SDS011;13371;52.080;5.624;2023-05-10T12:36:04;10.73;;;4.95;;
25449;SDS011;13371;52.080;5.624;2023-05-10T12:38:43;7.50;;;4.25;;
25449;SDS011;13371;52.080;5.624;2023-05-10T12:41:16;8.27;;;4.75;;
25449;SDS011;13371;52.080;5.624;2023-05-10T12:43:50;15.82;;;5.80;;
25449;SDS011;13371;52.080;5.624;2023-05-10T12:46:16;7.28;;;4.80;;
25449;SDS011;13371;52.080;5.624;2023-05-10T12:48:45;9.40;;;5.05;;
25449;SDS011;13371;52.080;5.624;2023-05-10T12:51:14;8.20;;;4.95;;
25449;SDS011;13371;52.080;5.624;2023-05-10T12:53:44;9.43;;;5.15;;
25449;SDS011;13371;52.080;5.624;2023-05-10T12:56:10;8.85;;;4.85;;
25449;SDS011;13371;52.080;5.624;2023-05-10T12:58:36;10.05;;;5.50;;
25449;SDS011;13371;52.080;5.624;2023-05-10T13:01:02;8.23;;;4.88;;
25449;SDS011;13371;52.080;5.624;2023-05-10T13:03:28;7.97;;;4.38;;
25449;SDS011;13371;52.080;5.624;2023-05-10T13:05:53;10.85;;;5.50;;
25449;SDS011;13371;52.080;5.624;2023-05-10T13:08:19;6.97;;;4.43;;
25449;SDS011;13371;52.080;5.624;2023-05-10T13:10:44;7.20;;;4.20;;
25449;SDS011;13371;52.080;5.624;2023-05-10T13:13:10;6.40;;;4.07;;
25449;SDS011;13371;52.080;5.624;2023-05-10T13:15:36;8.00;;;4.40;;
25449;SDS011;13371;52.080;5.624;2023-05-10T13:18:01;8.57;;;4.18;;
25449;SDS011;13371;52.080;5.624;2023-05-10T13:20:27;8.80;;;4.47;;
25449;SDS011;13371;52.080;5.624;2023-05-10T13:22:53;11.30;;;5.30;;
25449;SDS011;13371;52.080;5.624;2023-05-10T13:25:18;7.13;;;4.75;;
25449;SDS011;13371;52.080;5.624;2023-05-10T13:27:44;7.68;;;4.38;;
25449;SDS011;13371;52.080;5.624;2023-05-10T13:30:10;6.35;;;4.18;;
25449;SDS011;13371;52.080;5.624;2023-05-10T13:32:36;7.60;;;3.92;;
25449;SDS011;13371;52.080;5.624;2023-05-10T13:35:02;7.47;;;4.18;;
25449;SDS011;13371;52.080;5.624;2023-05-10T13:37:28;7.78;;;3.55;;
25449;SDS011;13371;52.080;5.624;2023-05-10T13:39:57;7.15;;;3.63;;
25449;SDS011;13371;52.080;5.624;2023-05-10T13:42:23;13.80;;;3.70;;
25449;SDS011;13371;52.080;5.624;2023-05-10T13:44:49;7.75;;;4.07;;
25449;SDS011;13371;52.080;5.624;2023-05-10T13:47:15;6.38;;;3.70;;
25449;SDS011;13371;52.080;5.624;2023-05-10T13:49:41;5.50;;;3.85;;
25449;SDS011;13371;52.080;5.624;2023-05-10T13:52:07;6.65;;;4.53;;
25449;SDS011;13371;52.080;5.624;2023-05-10T13:54:33;10.23;;;4.25;;
25449;SDS011;13371;52.080;5.624;2023-05-10T13:56:59;6.57;;;4.30;;
25449;SDS011;13371;52.080;5.624;2023-05-10T13:59:24;8.25;;;4.63;;
25449;SDS011;13371;52.080;5.624;2023-05-10T14:01:50;10.98;;;4.65;;
25449;SDS011;13371;52.080;5.624;2023-05-10T14:04:16;6.70;;;4.82;;
25449;SDS011;13371;52.080;5.624;2023-05-10T14:06:41;8.55;;;4.93;;
25449;SDS011;13371;52.080;5.624;2023-05-10T14:09:07;6.95;;;4.28;;
25449;SDS011;13371;52.080;5.624;2023-05-10T14:11:33;7.75;;;3.92;;
25449;SDS011;13371;52.080;5.624;2023-05-10T14:13:58;7.90;;;4.45;;
25449;SDS011;13371;52.080;5.624;2023-05-10T14:16:24;8.27;;;4.95;;
25449;SDS011;13371;52.080;5.624;2023-05-10T14:18:52;8.05;;;4.55;;
25449;SDS011;13371;52.080;5.624;2023-05-10T14:21:18;8.73;;;4.03;;
25449;SDS011;13371;52.080;5.624;2023-05-10T14:23:44;11.15;;;3.97;;
25449;SDS011;13371;52.080;5.624;2023-05-10T14:26:09;7.18;;;4.25;;
25449;SDS011;13371;52.080;5.624;2023-05-10T14:28:35;8.50;;;4.20;;
25449;SDS011;13371;52.080;5.624;2023-05-10T14:31:01;9.02;;;4.30;;
25449;SDS011;13371;52.080;5.624;2023-05-10T14:33:27;8.05;;;4.13;;
25449;SDS011;13371;52.080;5.624;2023-05-10T14:35:53;6.43;;;3.45;;
25449;SDS011;13371;52.080;5.624;2023-05-10T14:38:21;9.60;;;4.18;;
25449;SDS011;13371;52.080;5.624;2023-05-10T14:40:50;7.68;;;4.45;;
25449;SDS011;13371;52.080;5.624;2023-05-10T14:43:16;7.90;;;3.83;;
25449;SDS011;13371;52.080;5.624;2023-05-10T14:45:42;7.35;;;3.88;;
25449;SDS011;13371;52.080;5.624;2023-05-10T14:48:07;9.38;;;4.13;;
25449;SDS011;13371;52.080;5.624;2023-05-10T14:50:37;7.68;;;4.18;;
25449;SDS011;13371;52.080;5.624;2023-05-10T14:53:04;7.18;;;4.10;;
25449;SDS011;13371;52.080;5.624;2023-05-10T14:55:30;7.75;;;4.47;;
25449;SDS011;13371;52.080;5.624;2023-05-10T14:57:58;7.93;;;3.85;;
25449;SDS011;13371;52.080;5.624;2023-05-10T15:00:24;5.97;;;3.33;;
25449;SDS011;13371;52.080;5.624;2023-05-10T15:02:50;6.45;;;3.88;;
25449;SDS011;13371;52.080;5.624;2023-05-10T15:05:15;7.53;;;4.00;;
25449;SDS011;13371;52.080;5.624;2023-05-10T15:07:44;7.60;;;3.92;;